Time;durP1;ratioP1;P1;durP2;ratioP2;P2;SDS_P1;SDS_P2;PMS_P1;PMS_P2;Temp;Humidity;BMP_temperature;BMP_pressure;BME280_temperature;BME280_humidity;BME280_pressure;Samples;Min_cycle;Max_cycle;Signal;HPM_P1;HPM_P2
2022/09/05 00:02:05;;;;;;;13.50;11.30;;;19.20;79.00;;;;;;5075769;28;20036;-12
2022/09/05 00:04:46;;;;;;;14.38;11.30;;;19.20;78.90;;;;;;5076085;28;20025;-12
2022/09/05 00:07:35;;;;;;;17.83;15.23;;;19.20;78.80;;;;;;5075990;28;20032;-11
2022/09/05 00:10:25;;;;;;;17.73;13.73;;;19.20;81.20;;;;;;5074857;28;20035;-11
2022/09/05 00:13:00;;;;;;;18.88;15.38;;;19.10;80.60;;;;;;5075590;28;20054;-12
2022/09/05 00:15:32;;;;;;;15.63;13.23;;;19.00;80.90;;;;;;5076299;28;20052;-12
2022/09/05 00:18:01;;;;;;;15.20;12.73;;;18.90;80.40;;;;;;5076354;28;20086;-11
2022/09/05 00:21:08;;;;;;;14.20;11.65;;;18.90;79.80;;;;;;5075833;28;20112;-12
2022/09/05 00:23:56;;;;;;;16.83;13.77;;;18.90;79.90;;;;;;5075408;28;20025;-11
2022/09/05 00:26:40;;;;;;;16.55;13.70;;;18.90;80.30;;;;;;5075586;28;20027;-12
2022/09/05 00:29:21;;;;;;;17.08;13.48;;;18.90;80.20;;;;;;5075590;28;20035;-12
2022/09/05 00:32:17;;;;;;;17.20;13.73;;;18.90;79.90;;;;;;5075571;28;20466;-12
2022/09/05 00:34:43;;;;;;;16.48;13.00;;;18.80;79.90;;;;;;5075617;28;20111;-12
2022/09/05 00:37:10;;;;;;;13.50;12.02;;;18.80;80.00;;;;;;5075204;28;20111;-11
2022/09/05 00:39:39;;;;;;;16.55;13.10;;;18.80;79.90;;;;;;5075370;28;20381;-12
2022/09/05 00:42:16;;;;;;;16.02;13.70;;;18.80;79.80;;;;;;5075638;28;20017;-12
2022/09/05 00:45:12;;;;;;;20.25;17.15;;;18.80;79.70;;;;;;5075394;28;20036;-12
2022/09/05 00:47:52;;;;;;;15.20;12.48;;;18.80;79.80;;;;;;5073661;28;20428;-12
2022/09/05 00:50:26;;;;;;;22.40;18.10;;;18.80;79.70;;;;;;5075533;28;20048;-12
2022/09/05 00:53:23;;;;;;;21.80;18.17;;;18.80;79.70;;;;;;5074996;28;20052;-12
2022/09/05 00:56:15;;;;;;;19.15;15.43;;;18.80;79.90;;;;;;5075474;28;20033;-12
2022/09/05 00:59:02;;;;;;;28.63;21.85;;;18.80;80.00;;;;;;5075262;28;20027;-12
2022/09/05 01:01:46;;;;;;;22.02;18.23;;;18.70;80.20;;;;;;5075356;28;20041;-12
2022/09/05 01:04:40;;;;;;;18.23;15.43;;;18.70;80.30;;;;;;5075191;28;20024;-12
2022/09/05 01:07:06;;;;;;;22.08;19.10;;;18.60;80.40;;;;;;5074720;28;20024;-12
2022/09/05 01:09:55;;;;;;;23.70;18.20;;;18.60;80.80;;;;;;5075205;28;20032;-12
2022/09/05 01:12:35;;;;;;;15.43;12.95;;;18.60;81.00;;;;;;5074715;28;20047;-12
2022/09/05 01:15:13;;;;;;;20.08;15.00;;;18.60;80.80;;;;;;5075099;28;20070;-11
2022/09/05 01:17:53;;;;;;;25.92;21.77;;;18.50;80.70;;;;;;5075010;28;20025;-12
2022/09/05 01:20:33;;;;;;;19.90;17.02;;;18.50;80.70;;;;;;5074576;28;20419;-12
2022/09/05 01:23:17;;;;;;;16.08;13.90;;;18.50;80.80;;;;;;5074449;28;20383;-11
2022/09/05 01:26:01;;;;;;;23.77;18.55;;;18.50;80.80;;;;;;5074519;28;20029;-11
2022/09/05 01:28:35;;;;;;;25.52;21.42;;;18.50;81.00;;;;;;5074400;28;20384;-12
2022/09/05 01:31:20;;;;;;;18.30;14.93;;;18.50;81.00;;;;;;5074157;28;20070;-12
2022/09/05 01:33:54;;;;;;;24.08;20.33;;;18.50;81.00;;;;;;5073416;28;20028;-12
2022/09/05 01:37:05;;;;;;;18.48;15.45;;;18.50;81.10;;;;;;5074638;28;20035;-12
2022/09/05 01:39:57;;;;;;;21.85;16.95;;;18.50;81.10;;;;;;5073412;28;20484;-12
2022/09/05 01:42:31;;;;;;;21.90;18.10;;;18.50;81.10;;;;;;5073332;28;20028;-12
2022/09/05 01:45:09;;;;;;;24.77;19.83;;;18.50;81.10;;;;;;5073843;28;20028;-12
2022/09/05 01:47:50;;;;;;;20.83;17.00;;;18.60;81.10;;;;;;5074065;28;20020;-12
2022/09/05 01:50:40;;;;;;;22.45;17.80;;;18.60;81.50;;;;;;5074319;28;20025;-12
2022/09/05 01:53:37;;;;;;;16.98;14.20;;;18.50;81.60;;;;;;5074124;28;20079;-12
2022/09/05 01:56:21;;;;;;;19.60;15.75;;;18.50;81.40;;;;;;5073824;28;20495;-12
2022/09/05 01:58:56;;;;;;;20.73;18.23;;;18.50;81.20;;;;;;5073866;28;20036;-13
2022/09/05 02:01:41;;;;;;;19.75;15.30;;;18.50;81.20;;;;;;5072407;28;20044;-11
2022/09/05 02:04:25;;;;;;;17.25;14.05;;;18.50;81.30;;;;;;5073498;28;20037;-12
2022/09/05 02:06:57;;;;;;;18.70;14.82;;;18.50;81.20;;;;;;5073760;28;20043;-12
2022/09/05 02:09:47;;;;;;;21.35;17.38;;;18.50;81.30;;;;;;5074060;28;20677;-12
2022/09/05 02:12:25;;;;;;;20.70;16.90;;;18.50;81.30;;;;;;5073561;28;20484;-12
2022/09/05 02:14:55;;;;;;;23.65;17.13;;;18.50;81.10;;;;;;5073329;28;20120;-12
2022/09/05 02:17:41;;;;;;;18.10;14.98;;;18.50;81.20;;;;;;5073505;28;20377;-13
2022/09/05 02:20:15;;;;;;;19.33;15.40;;;18.40;81.20;;;;;;5074625;28;20028;-12
2022/09/05 02:22:47;;;;;;;20.75;16.75;;;18.40;81.30;;;;;;5073703;28;20423;-13
2022/09/05 02:25:27;;;;;;;18.98;15.80;;;18.40;81.30;;;;;;5073259;28;20077;-11
2022/09/05 02:28:10;;;;;;;16.80;14.05;;;18.40;81.40;;;;;;5073726;28;20025;-12
2022/09/05 02:31:03;;;;;;;12.07;10.75;;;18.40;81.30;;;;;;5073685;28;20024;-11
2022/09/05 02:33:44;;;;;;;16.35;13.23;;;18.40;81.20;;;;;;5073015;28;20028;-12
2022/09/05 02:36:16;;;;;;;19.25;15.45;;;18.40;81.30;;;;;;5073631;28;20100;-12
2022/09/05 02:38:48;;;;;;;16.27;13.77;;;18.40;81.50;;;;;;5073587;28;20020;-11
2022/09/05 02:41:26;;;;;;;15.13;12.30;;;18.30;81.60;;;;;;5073434;28;20025;-12
2022/09/05 02:44:03;;;;;;;16.42;13.43;;;18.30;81.50;;;;;;5072949;28;20032;-12
2022/09/05 02:46:51;;;;;;;15.13;12.27;;;18.20;81.40;;;;;;5072986;28;20031;-12
2022/09/05 02:49:40;;;;;;;15.93;13.52;;;18.10;81.40;;;;;;5073976;28;20111;-13
2022/09/05 02:52:10;;;;;;;25.10;19.13;;;18.10;81.50;;;;;;5073506;28;20025;-12
2022/09/05 02:54:42;;;;;;;22.98;18.23;;;18.00;82.30;;;;;;5073123;28;20086;-11
2022/09/05 02:57:37;;;;;;;17.33;14.98;;;17.90;83.70;;;;;;5072918;28;20028;-12
2022/09/05 03:00:59;;;;;;;16.10;13.45;;;17.90;82.90;;;;;;5073011;28;20056;-13
2022/09/05 03:03:47;;;;;;;15.75;12.43;;;17.90;82.40;;;;;;5072322;28;20028;-11
2022/09/05 03:06:28;;;;;;;18.00;15.15;;;17.80;82.40;;;;;;5073319;28;20032;-11
2022/09/05 03:09:06;;;;;;;17.33;14.98;;;17.80;82.40;;;;;;5073061;28;20108;-11
2022/09/05 03:12:00;;;;;;;13.57;11.18;;;17.80;82.50;;;;;;5073677;28;20083;-13
2022/09/05 03:15:02;;;;;;;15.27;12.48;;;17.70;82.30;;;;;;5072970;28;20119;-12
2022/09/05 03:17:34;;;;;;;17.23;14.60;;;17.70;82.30;;;;;;5073097;28;20025;-12
2022/09/05 03:20:33;;;;;;;16.23;13.35;;;17.70;82.10;;;;;;5073008;28;20074;-12
2022/09/05 03:23:17;;;;;;;14.13;11.90;;;17.70;82.20;;;;;;5072920;28;20042;-12
2022/09/05 03:26:05;;;;;;;23.38;16.80;;;17.70;82.10;;;;;;5072793;28;20045;-12
2022/09/05 03:29:10;;;;;;;23.67;19.23;;;17.70;82.10;;;;;;5072609;28;20032;-12
2022/09/05 03:32:04;;;;;;;26.48;20.58;;;17.70;82.20;;;;;;5071826;28;20024;-12
2022/09/05 03:35:08;;;;;;;16.83;14.57;;;17.60;82.70;;;;;;5071652;28;20021;-12
2022/09/05 03:37:43;;;;;;;19.35;14.27;;;17.70;83.00;;;;;;5070626;28;20028;-12
2022/09/05 03:40:43;;;;;;;12.88;11.25;;;17.60;83.00;;;;;;5070709;28;20079;-12
2022/09/05 03:43:35;;;;;;;16.10;13.40;;;17.60;82.60;;;;;;5037383;28;20408;-12
2022/09/05 03:46:19;;;;;;;23.20;17.65;;;17.60;82.70;;;;;;5068067;28;20067;-12
2022/09/05 03:49:03;;;;;;;17.98;14.73;;;17.60;82.70;;;;;;5070577;28;20029;-11
2022/09/05 03:52:11;;;;;;;15.18;12.82;;;17.60;82.90;;;;;;5070891;28;20037;-12
2022/09/05 03:55:04;;;;;;;15.82;13.43;;;17.50;82.80;;;;;;5070452;28;20029;-12
2022/09/05 03:57:48;;;;;;;14.32;12.40;;;17.50;83.00;;;;;;5071810;28;20554;-12
2022/09/05 04:00:22;;;;;;;12.13;10.70;;;17.50;82.90;;;;;;5073922;28;20056;-12
2022/09/05 04:02:57;;;;;;;12.63;11.25;;;17.50;82.80;;;;;;5074191;28;20056;-12
2022/09/05 04:05:35;;;;;;;20.48;16.13;;;17.50;82.80;;;;;;5074022;28;20048;-12
2022/09/05 04:08:24;;;;;;;19.83;15.75;;;17.40;83.00;;;;;;5073911;28;20028;-11
2022/09/05 04:11:05;;;;;;;15.63;12.77;;;17.40;83.00;;;;;;5074176;28;20040;-12
2022/09/05 04:13:45;;;;;;;16.55;13.63;;;17.40;82.70;;;;;;5075875;28;20033;-12
2022/09/05 04:16:26;;;;;;;22.83;17.92;;;17.40;82.80;;;;;;5075951;28;20032;-11
2022/09/05 04:19:06;;;;;;;15.77;12.73;;;17.40;83.20;;;;;;5075964;28;20052;-11
2022/09/05 04:21:43;;;;;;;15.05;11.52;;;17.40;83.00;;;;;;5075972;28;20030;-12
2022/09/05 04:24:48;;;;;;;13.63;11.73;;;17.40;83.00;;;;;;5075637;28;20033;-11
2022/09/05 04:27:41;;;;;;;16.17;12.98;;;17.40;83.00;;;;;;5074200;28;20029;-11
2022/09/05 04:30:45;;;;;;;22.50;16.20;;;17.40;83.10;;;;;;5075445;28;20035;-12
2022/09/05 04:33:18;;;;;;;21.17;18.10;;;17.30;82.90;;;;;;5073295;28;20025;-11
2022/09/05 04:35:51;;;;;;;13.38;11.52;;;17.30;83.00;;;;;;5073909;28;20098;-12
2022/09/05 04:38:32;;;;;;;;;;;17.30;83.00;;;;;;5074210;28;20106;-12
2022/09/05 04:41:05;;;;;;;16.42;13.77;;;17.20;83.40;;;;;;5073256;28;19904;-11
2022/09/05 04:43:33;;;;;;;15.93;13.25;;;17.30;82.90;;;;;;5073106;28;20040;-11
2022/09/05 04:46:26;;;;;;;16.55;14.00;;;17.30;82.90;;;;;;5073253;28;20043;-12
2022/09/05 04:48:57;;;;;;;23.25;16.15;;;17.40;82.90;;;;;;5072984;28;20036;-11
2022/09/05 04:51:41;;;;;;;20.98;17.00;;;17.40;83.20;;;;;;5073610;28;20457;-12
2022/09/05 04:54:21;;;;;;;18.42;13.38;;;17.40;83.20;;;;;;5073170;28;20040;-11
2022/09/05 04:56:54;;;;;;;17.92;14.52;;;17.40;83.10;;;;;;5072876;28;20040;-12
2022/09/05 04:59:31;;;;;;;29.13;16.48;;;17.50;83.00;;;;;;5072751;28;20570;-12
2022/09/05 05:02:05;;;;;;;16.83;14.10;;;17.60;83.10;;;;;;5073231;28;20028;-12
2022/09/05 05:04:31;;;;;;;19.30;15.25;;;17.60;83.20;;;;;;5072865;28;20497;-12
2022/09/05 05:07:09;;;;;;;25.30;19.45;;;17.60;83.30;;;;;;5072994;28;20492;-12
2022/09/05 05:09:49;;;;;;;16.25;12.70;;;17.70;82.90;;;;;;5073916;28;20040;-11
2022/09/05 05:12:29;;;;;;;16.35;13.23;;;17.80;82.80;;;;;;5074836;28;20021;-12
2022/09/05 05:15:01;;;;;;;16.52;12.88;;;17.80;82.90;;;;;;5074705;28;20476;-12
2022/09/05 05:17:27;;;;;;;19.00;15.45;;;17.90;82.90;;;;;;5075021;28;20197;-12
2022/09/05 05:20:19;;;;;;;16.00;13.45;;;17.90;82.80;;;;;;5074996;28;20549;-12
2022/09/05 05:22:58;;;;;;;23.08;14.18;;;18.00;82.60;;;;;;5074101;28;20035;-11
2022/09/05 05:25:25;;;;;;;21.95;16.42;;;18.10;82.40;;;;;;5074793;28;20043;-12
2022/09/05 05:28:40;;;;;;;18.42;15.25;;;18.20;82.40;;;;;;5074686;28;20021;-12
2022/09/05 05:31:29;;;;;;;16.85;12.80;;;18.30;82.40;;;;;;5074151;28;20487;-12
2022/09/05 05:34:00;;;;;;;21.60;15.82;;;18.40;82.20;;;;;;5074631;28;20468;-12
2022/09/05 05:36:32;;;;;;;16.52;13.68;;;18.50;82.00;;;;;;5074323;28;20025;-12
2022/09/05 05:39:09;;;;;;;18.10;13.38;;;18.60;81.90;;;;;;5072866;28;20023;-11
2022/09/05 05:41:47;;;;;;;14.65;11.77;;;18.70;81.70;;;;;;5074205;28;20115;-12
2022/09/05 05:44:21;;;;;;;13.50;11.95;;;18.80;81.60;;;;;;5074347;28;20041;-11
2022/09/05 05:47:07;;;;;;;17.08;13.40;;;18.90;81.40;;;;;;5074078;28;20036;-11
2022/09/05 05:49:45;;;;;;;19.92;14.48;;;18.90;81.20;;;;;;5072799;28;20020;-12
2022/09/05 05:52:30;;;;;;;12.57;10.93;;;19.00;81.30;;;;;;5074255;28;20039;-12
2022/09/05 05:55:18;;;;;;;13.00;10.85;;;19.10;81.10;;;;;;5072518;28;20029;-13
2022/09/05 05:58:25;;;;;;;16.70;13.38;;;19.10;81.30;;;;;;5074154;28;20020;-12
2022/09/05 06:00:53;;;;;;;16.13;13.90;;;19.30;81.40;;;;;;5073525;28;20045;-11
2022/09/05 06:03:25;;;;;;;16.60;14.57;;;19.40;81.40;;;;;;5073956;28;20177;-11
2022/09/05 06:06:30;;;;;;;14.45;11.43;;;19.60;81.10;;;;;;5074063;28;20473;-12
2022/09/05 06:09:00;;;;;;;15.27;11.90;;;19.90;80.90;;;;;;5072749;28;20451;-12
2022/09/05 06:12:17;;;;;;;17.27;14.15;;;20.00;80.20;;;;;;5072357;28;20107;-11
2022/09/05 06:14:48;;;;;;;16.13;12.23;;;20.20;79.80;;;;;;5071435;28;20028;-12
2022/09/05 06:17:48;;;;;;;13.63;11.10;;;20.40;79.20;;;;;;5071489;28;20055;-12
2022/09/05 06:20:35;;;;;;;13.23;10.13;;;20.50;79.00;;;;;;5070918;28;20511;-9
2022/09/05 06:23:10;;;;;;;13.95;11.90;;;20.70;78.80;;;;;;5071149;28;20043;-9
2022/09/05 06:26:03;;;;;;;16.73;12.27;;;20.90;78.60;;;;;;5071605;28;20086;-11
2022/09/05 06:29:04;;;;;;;16.67;12.63;;;21.00;78.50;;;;;;5071319;28;20028;-12
2022/09/05 06:32:02;;;;;;;12.55;11.18;;;21.10;78.40;;;;;;5072106;28;20036;-12
2022/09/05 06:34:58;;;;;;;18.63;12.98;;;21.30;78.40;;;;;;5071649;28;20033;-11
2022/09/05 06:37:40;;;;;;;17.83;13.35;;;21.40;78.30;;;;;;5071283;28;20028;-11
2022/09/05 06:40:24;;;;;;;16.85;14.38;;;21.50;78.10;;;;;;5072096;28;20067;-11
2022/09/05 06:43:21;;;;;;;16.73;11.90;;;21.70;77.90;;;;;;5070838;28;20039;-11
2022/09/05 06:46:16;;;;;;;15.07;12.20;;;21.80;77.60;;;;;;5071198;28;20044;-12
2022/09/05 06:48:58;;;;;;;15.07;13.43;;;21.90;77.40;;;;;;5063857;28;20032;-11
2022/09/05 06:51:41;;;;;;;14.65;11.73;;;21.90;77.30;;;;;;5071887;28;20028;-11
2022/09/05 06:54:26;;;;;;;11.63;9.97;;;22.20;76.90;;;;;;5073192;28;20033;-12
2022/09/05 06:57:29;;;;;;;14.27;11.10;;;22.40;76.70;;;;;;5072871;28;20028;-11
2022/09/05 06:59:55;;;;;;;15.13;12.32;;;22.60;76.00;;;;;;5071848;28;20059;-11
2022/09/05 07:02:44;;;;;;;14.18;12.48;;;22.90;75.60;;;;;;5072963;28;20032;-11
2022/09/05 07:05:37;;;;;;;15.80;12.20;;;23.10;75.00;;;;;;5062490;28;20036;-11
2022/09/05 07:08:10;;;;;;;14.43;9.90;;;23.30;74.00;;;;;;5073258;28;20028;-11
2022/09/05 07:10:40;;;;;;;9.77;8.30;;;23.40;73.70;;;;;;5072961;28;20083;-12
2022/09/05 07:13:24;;;;;;;11.90;10.70;;;23.50;73.60;;;;;;5072956;28;20104;-10
2022/09/05 07:16:15;;;;;;;10.13;8.18;;;23.70;72.80;;;;;;5071687;28;20550;-11
2022/09/05 07:19:07;;;;;;;10.73;8.27;;;23.90;72.40;;;;;;5073000;28;20028;-12
2022/09/05 07:21:56;;;;;;;10.73;8.10;;;24.20;71.90;;;;;;5073114;28;20112;-11
2022/09/05 07:24:26;;;;;;;10.68;8.05;;;24.60;71.00;;;;;;5073005;28;20033;-11
2022/09/05 07:26:58;;;;;;;11.80;7.55;;;24.90;69.60;;;;;;5072544;28;20067;-11
2022/09/05 07:29:31;;;;;;;10.60;7.88;;;25.20;69.00;;;;;;5073023;28;20063;-11
2022/09/05 07:32:01;;;;;;;12.18;9.60;;;25.50;68.10;;;;;;5073680;28;20028;-11
2022/09/05 07:34:30;;;;;;;13.23;7.57;;;25.90;66.90;;;;;;5076968;28;20052;-11
2022/09/05 07:37:17;;;;;;;12.63;9.70;;;26.20;66.20;;;;;;5076370;28;20099;-10
2022/09/05 07:39:56;;;;;;;8.23;6.80;;;26.40;65.00;;;;;;5076865;28;20063;-11
2022/09/05 07:42:31;;;;;;;9.50;6.85;;;26.40;64.70;;;;;;5076679;28;20078;-11
2022/09/05 07:45:05;;;;;;;8.10;6.20;;;26.50;65.30;;;;;;5076462;28;20439;-12
2022/09/05 07:47:35;;;;;;;7.97;6.18;;;26.50;64.90;;;;;;5076748;28;20029;-11
2022/09/05 07:50:11;;;;;;;10.57;6.78;;;26.60;64.00;;;;;;5076365;28;20020;-11
2022/09/05 07:52:41;;;;;;;12.15;8.73;;;26.70;63.40;;;;;;5076279;28;20440;-11
2022/09/05 07:55:34;;;;;;;8.90;7.18;;;26.90;62.40;;;;;;5076434;28;20020;-12
2022/09/05 07:58:07;;;;;;;8.60;6.73;;;27.20;61.90;;;;;;5076173;28;20025;-12
2022/09/05 08:00:35;;;;;;;9.93;6.55;;;27.40;61.00;;;;;;5076117;28;20064;-11
2022/09/05 08:03:14;;;;;;;10.65;6.88;;;27.70;60.70;;;;;;5075852;28;20028;-11
2022/09/05 08:05:46;;;;;;;9.80;6.70;;;27.90;59.00;;;;;;5076292;28;20099;-11
2022/09/05 08:08:21;;;;;;;9.63;7.40;;;28.20;59.40;;;;;;5076031;28;20032;-11
2022/09/05 08:11:10;;;;;;;10.45;7.40;;;28.40;58.20;;;;;;5075976;28;20035;-11
2022/09/05 08:13:39;;;;;;;8.77;6.60;;;28.60;56.30;;;;;;5075864;28;20016;-11
2022/09/05 08:16:08;;;;;;;7.30;5.97;;;28.80;55.90;;;;;;5075828;28;20028;-10
2022/09/05 08:18:48;;;;;;;13.07;8.90;;;28.90;56.00;;;;;;5075757;28;20484;-11
2022/09/05 08:21:33;;;;;;;12.68;7.93;;;29.00;55.50;;;;;;5076129;28;20452;-11
2022/09/05 08:24:35;;;;;;;8.95;6.65;;;29.10;55.50;;;;;;5076541;28;20032;-11
2022/09/05 08:27:22;;;;;;;12.20;9.18;;;29.30;55.50;;;;;;5075664;28;20065;-11
2022/09/05 08:30:09;;;;;;;10.52;7.32;;;29.50;55.50;;;;;;5075582;28;20029;-11
2022/09/05 08:32:35;;;;;;;14.68;9.45;;;29.50;52.90;;;;;;5075898;28;20353;-11
2022/09/05 08:35:06;;;;;;;9.75;8.48;;;29.50;55.00;;;;;;5075284;28;20491;-11
2022/09/05 08:37:33;;;;;;;8.30;6.25;;;29.40;55.30;;;;;;5075518;28;20078;-12
2022/09/05 08:40:07;;;;;;;9.27;7.80;;;29.40;55.30;;;;;;5075382;28;20036;-11
2022/09/05 08:42:38;;;;;;;9.05;5.82;;;29.40;54.50;;;;;;5075259;28;20024;-12
2022/09/05 08:45:28;;;;;;;8.60;6.35;;;29.40;55.60;;;;;;5075125;28;20124;-11
2022/09/05 08:48:40;;;;;;;9.35;5.88;;;29.90;53.10;;;;;;5075586;28;20036;-10
2022/09/05 08:51:15;;;;;;;7.28;5.63;;;30.40;53.50;;;;;;5072989;28;20029;-11
2022/09/05 08:54:07;;;;;;;6.32;5.53;;;31.00;52.60;;;;;;5073227;28;20032;-11
2022/09/05 08:57:19;;;;;;;6.10;5.50;;;31.70;50.50;;;;;;4993822;28;20450;-12
2022/09/05 09:00:00;;;;;;;7.25;5.50;;;32.20;48.20;;;;;;4993658;28;20034;-12
2022/09/05 09:02:53;;;;;;;7.00;5.50;;;32.80;49.00;;;;;;4993689;28;20027;-12
2022/09/05 09:05:49;;;;;;;7.07;5.10;;;33.20;48.00;;;;;;4977366;28;20089;-11
2022/09/05 09:08:38;;;;;;;7.65;6.13;;;33.50;45.60;;;;;;4993566;28;20080;-11
2022/09/05 09:11:11;;;;;;;9.23;5.97;;;33.70;46.70;;;;;;4993389;28;20545;-10
2022/09/05 09:13:51;;;;;;;5.82;4.72;;;33.80;46.80;;;;;;4993366;28;20037;-11
2022/09/05 09:16:26;;;;;;;8.15;6.35;;;33.90;46.60;;;;;;4993458;28;20034;-11
2022/09/05 09:18:52;;;;;;;6.68;5.75;;;34.10;45.70;;;;;;4993291;28;20038;-11
2022/09/05 09:21:34;;;;;;;6.38;5.35;;;34.20;45.00;;;;;;4993860;28;20461;-11
2022/09/05 09:24:03;;;;;;;6.60;5.77;;;34.20;44.40;;;;;;4994114;28;20042;-11
2022/09/05 09:26:41;;;;;;;9.38;5.40;;;34.20;44.50;;;;;;5012840;28;20092;-11
2022/09/05 09:29:12;;;;;;;5.18;4.60;;;33.90;45.20;;;;;;5012468;28;20029;-11
2022/09/05 09:31:53;;;;;;;8.82;5.10;;;33.90;44.80;;;;;;5013272;28;20057;-11
2022/09/05 09:34:25;;;;;;;6.57;5.00;;;34.00;43.00;;;;;;5068471;28;20109;-11
2022/09/05 09:37:21;;;;;;;6.50;4.53;;;34.00;43.50;;;;;;5074098;28;20477;-11
2022/09/05 09:40:13;;;;;;;5.70;4.95;;;34.10;43.70;;;;;;5074211;28;20485;-11
2022/09/05 09:43:00;;;;;;;6.03;4.00;;;34.30;44.10;;;;;;5073336;28;20025;-11
2022/09/05 09:45:55;;;;;;;4.90;4.40;;;34.40;44.00;;;;;;5074027;28;20506;-10
2022/09/05 09:48:43;;;;;;;4.00;3.70;;;34.50;43.00;;;;;;5074767;28;20020;-11
2022/09/05 09:51:18;;;;;;;4.88;4.38;;;34.50;43.10;;;;;;5073850;28;20033;-11
2022/09/05 09:54:26;;;;;;;5.63;5.07;;;34.60;42.80;;;;;;5073988;28;20078;-11
2022/09/05 09:57:07;;;;;;;6.72;4.47;;;34.60;42.80;;;;;;5073278;28;20055;-10
2022/09/05 09:59:58;;;;;;;7.13;4.82;;;34.20;42.60;;;;;;5073569;28;20143;-11
2022/09/05 10:02:44;;;;;;;10.13;5.28;;;33.90;43.60;;;;;;5074224;28;20042;-11
2022/09/05 10:05:37;;;;;;;5.05;4.07;;;33.90;42.40;;;;;;5073855;28;20020;-12
2022/09/05 10:08:18;;;;;;;5.97;4.43;;;34.00;42.20;;;;;;5073727;28;20044;-11
2022/09/05 10:11:11;;;;;;;6.03;4.47;;;34.00;42.10;;;;;;5073711;28;20028;-11
2022/09/05 10:14:01;;;;;;;5.72;3.65;;;34.10;41.10;;;;;;5073861;28;20031;-11
2022/09/05 10:16:38;;;;;;;4.78;3.90;;;34.10;42.20;;;;;;5074162;28;20048;-11
2022/09/05 10:19:10;;;;;;;4.85;3.75;;;34.30;41.40;;;;;;5072269;28;20365;-12
2022/09/05 10:22:00;;;;;;;6.03;4.10;;;34.60;41.20;;;;;;5073864;28;20036;-11
2022/09/05 10:25:03;;;;;;;8.63;4.70;;;35.00;40.10;;;;;;5073707;28;20036;-11
2022/09/05 10:27:49;;;;;;;11.10;4.55;;;35.30;39.90;;;;;;5073759;28;20064;-11
2022/09/05 10:30:20;;;;;;;3.97;3.50;;;35.40;40.00;;;;;;5073493;28;20020;-11
2022/09/05 10:32:58;;;;;;;5.65;3.60;;;35.50;40.60;;;;;;5073665;28;20029;-11
2022/09/05 10:35:35;;;;;;;5.70;3.60;;;35.80;38.80;;;;;;5073337;28;20135;-11
2022/09/05 10:38:13;;;;;;;4.13;3.33;;;36.20;37.00;;;;;;5073551;28;20032;-12
2022/09/05 10:40:44;;;;;;;5.50;3.40;;;36.50;36.50;;;;;;5074086;28;20032;-11
2022/09/05 10:43:22;;;;;;;4.05;3.30;;;36.90;37.10;;;;;;5073044;28;20031;-11
2022/09/05 10:45:59;;;;;;;5.70;3.20;;;37.20;36.20;;;;;;5073163;28;20032;-11
2022/09/05 10:48:40;;;;;;;4.32;3.30;;;37.50;35.80;;;;;;5073317;28;20029;-11
2022/09/05 10:51:44;;;;;;;3.17;2.88;;;37.80;35.50;;;;;;5072947;28;20523;-11
2022/09/05 10:54:13;;;;;;;3.95;3.13;;;38.00;33.70;;;;;;5072856;28;20051;-11
2022/09/05 10:56:48;;;;;;;4.28;2.88;;;38.20;34.30;;;;;;5073382;28;20094;-12
2022/09/05 10:59:43;;;;;;;5.43;2.90;;;38.40;34.30;;;;;;5073117;28;20021;-11
2022/09/05 11:02:21;;;;;;;3.90;3.50;;;38.40;33.40;;;;;;5072971;28;20435;-11
2022/09/05 11:05:18;;;;;;;3.63;3.20;;;38.40;33.30;;;;;;5071540;28;20111;-11
2022/09/05 11:08:08;;;;;;;4.57;3.70;;;38.40;33.90;;;;;;5079376;28;20032;-11
2022/09/05 11:10:40;;;;;;;4.45;3.35;;;38.40;33.90;;;;;;5079639;28;20020;-11
2022/09/05 11:13:21;;;;;;;3.50;3.20;;;38.40;34.30;;;;;;5079342;28;20477;-11
2022/09/05 11:15:58;;;;;;;3.97;3.33;;;38.50;33.90;;;;;;5080051;28;20041;-12
2022/09/05 11:18:56;;;;;;;5.07;3.20;;;38.70;34.00;;;;;;5079626;28;20554;-11
2022/09/05 11:21:53;;;;;;;7.15;2.95;;;38.90;32.90;;;;;;5078163;28;20123;-11
2022/09/05 11:24:35;;;;;;;3.28;2.85;;;38.70;33.50;;;;;;5059966;28;20388;-11
2022/09/05 11:27:21;;;;;;;4.13;3.70;;;38.40;33.40;;;;;;5077209;28;20093;-11
2022/09/05 11:30:13;;;;;;;4.45;3.10;;;38.00;34.10;;;;;;5077522;28;20377;-11
2022/09/05 11:33:16;;;;;;;3.17;2.78;;;37.00;35.30;;;;;;5066842;28;20033;-11
2022/09/05 11:35:53;;;;;;;;;;;36.10;36.30;;;;;;5077782;28;20060;-11
2022/09/05 11:38:58;;;;;;;5.65;3.80;;;35.60;37.70;;;;;;5077387;28;19994;-11
2022/09/05 11:41:48;;;;;;;4.93;3.40;;;35.40;38.20;;;;;;5077291;28;20028;-11
2022/09/05 11:44:33;;;;;;;4.32;3.50;;;35.80;37.20;;;;;;5077212;28;20082;-12
2022/09/05 11:46:59;;;;;;;5.40;2.83;;;36.40;36.80;;;;;;5077039;28;20123;-11
2022/09/05 11:49:39;;;;;;;4.43;2.90;;;36.90;36.50;;;;;;5077096;28;20082;-11
2022/09/05 11:52:47;;;;;;;4.43;3.28;;;37.40;35.80;;;;;;5077138;28;20388;-11
2022/09/05 11:55:56;;;;;;;6.20;3.10;;;37.70;35.70;;;;;;4997788;28;20042;-11
2022/09/05 11:58:59;;;;;;;4.88;3.22;;;37.90;34.80;;;;;;5017523;28;20085;-11
2022/09/05 12:01:53;;;;;;;3.20;2.90;;;38.30;35.40;;;;;;5017244;28;20056;-11
2022/09/05 12:04:41;;;;;;;5.28;3.25;;;38.70;34.00;;;;;;5017305;28;20088;-11
2022/09/05 12:07:39;;;;;;;3.40;3.10;;;39.10;32.90;;;;;;5017207;28;20042;-11
2022/09/05 12:10:29;;;;;;;6.03;3.45;;;38.80;32.70;;;;;;5017553;28;20521;-11
2022/09/05 12:13:15;;;;;;;3.97;3.30;;;38.60;32.20;;;;;;5017145;28;20037;-12
2022/09/05 12:15:45;;;;;;;3.00;2.70;;;38.30;33.60;;;;;;5017232;28;20038;-11
2022/09/05 12:18:42;;;;;;;4.82;3.15;;;38.10;34.10;;;;;;5014849;28;20045;-11
2022/09/05 12:21:47;;;;;;;3.30;2.75;;;37.90;33.80;;;;;;5013918;28;20506;-11
2022/09/05 12:24:42;;;;;;;3.90;2.70;;;38.00;34.20;;;;;;4975145;28;20384;-11
2022/09/05 12:27:12;;;;;;;3.35;2.60;;;38.20;34.10;;;;;;5013219;28;20112;-11
2022/09/05 12:29:45;;;;;;;4.70;2.60;;;38.60;33.80;;;;;;5013870;28;20419;-12
2022/09/05 12:32:19;;;;;;;4.50;3.10;;;39.20;33.40;;;;;;5014022;28;20045;-12
2022/09/05 12:34:58;;;;;;;4.55;2.90;;;39.70;32.40;;;;;;5013881;28;20030;-12
2022/09/05 12:37:37;;;;;;;3.20;2.90;;;40.20;31.20;;;;;;5013678;28;20486;-12
2022/09/05 12:40:16;;;;;;;4.47;3.20;;;40.40;31.00;;;;;;5013788;28;20026;-11
2022/09/05 12:42:56;;;;;;;5.45;3.10;;;40.00;30.30;;;;;;5013725;28;20041;-11
2022/09/05 12:45:40;;;;;;;3.03;2.72;;;39.40;31.20;;;;;;5013567;28;20157;-11
2022/09/05 12:48:21;;;;;;;4.38;2.80;;;38.90;32.00;;;;;;5013591;28;20168;-11
2022/09/05 12:51:10;;;;;;;4.40;2.55;;;38.90;32.10;;;;;;5013585;28;20080;-12
2022/09/05 12:53:47;;;;;;;2.70;2.50;;;39.30;31.20;;;;;;5013573;28;20026;-11
2022/09/05 12:56:34;;;;;;;2.90;2.60;;;39.70;31.60;;;;;;5013473;28;20117;-11
2022/09/05 12:59:03;;;;;;;4.28;2.53;;;40.10;30.40;;;;;;5066631;28;20444;-12
2022/09/05 13:01:38;;;;;;;5.50;2.75;;;40.50;30.50;;;;;;5075330;28;20032;-11
2022/09/05 13:04:24;;;;;;;5.20;3.00;;;40.90;30.60;;;;;;5075005;28;20020;-11
2022/09/05 13:06:59;;;;;;;2.80;2.60;;;41.10;29.40;;;;;;5075281;28;20031;-12
2022/09/05 13:09:36;;;;;;;2.92;2.63;;;41.40;30.20;;;;;;5074963;28;20033;-11
2022/09/05 13:12:11;;;;;;;3.60;2.60;;;41.60;28.90;;;;;;5075221;28;20028;-11
2022/09/05 13:15:15;;;;;;;6.70;2.83;;;41.70;28.60;;;;;;5074789;28;20515;-11
2022/09/05 13:18:02;;;;;;;2.80;2.50;;;41.80;27.60;;;;;;5074648;28;20059;-12
2022/09/05 13:20:38;;;;;;;3.53;2.83;;;41.80;28.30;;;;;;5074727;28;20420;-12
2022/09/05 13:23:22;;;;;;;3.05;2.50;;;41.90;28.10;;;;;;5074727;28;20082;-11
2022/09/05 13:25:58;;;;;;;3.05;2.67;;;41.90;27.80;;;;;;5074770;28;20055;-12
2022/09/05 13:28:50;;;;;;;2.97;2.53;;;42.00;28.10;;;;;;5074465;28;20370;-11
2022/09/05 13:31:41;;;;;;;3.03;2.38;;;42.10;27.70;;;;;;5073712;28;20025;-12
2022/09/05 13:34:18;;;;;;;2.97;2.40;;;41.70;28.00;;;;;;5074372;28;20465;-12
2022/09/05 13:37:06;;;;;;;2.50;2.20;;;41.70;28.70;;;;;;5074417;28;20024;-12
2022/09/05 13:39:49;;;;;;;3.28;2.97;;;41.60;28.30;;;;;;5073185;28;20046;-12
2022/09/05 13:42:20;;;;;;;4.90;2.70;;;41.60;28.60;;;;;;5074276;28;20033;-11
2022/09/05 13:44:54;;;;;;;5.65;2.88;;;41.50;28.10;;;;;;5074387;28;20032;-11
2022/09/05 13:47:41;;;;;;;7.30;3.42;;;41.40;27.50;;;;;;5074800;28;20067;-11
2022/09/05 13:50:12;;;;;;;4.07;2.72;;;41.10;28.20;;;;;;5074417;28;20028;-11
2022/09/05 13:52:46;;;;;;;3.05;2.80;;;40.60;28.70;;;;;;5074377;28;20085;-12
2022/09/05 13:55:29;;;;;;;8.20;3.28;;;40.10;29.00;;;;;;5074014;28;20503;-11
2022/09/05 13:58:24;;;;;;;6.70;2.78;;;39.40;30.10;;;;;;5074856;28;20029;-12